Time;durP1;ratioP1;P1;durP2;ratioP2;P2;SDS_P1;SDS_P2;PMS_P1;PMS_P2;Temp;Humidity;BMP_temperature;BMP_pressure;BME280_temperature;BME280_humidity;BME280_pressure;Samples;Min_cycle;Max_cycle;Signal;HPM_P1;HPM_P2
2023/09/19 00:00:58;;;;;;;0.60;0.55;;;;;;;;;;4986580;28;20030;-58
2023/09/19 00:03:28;;;;;;;0.43;0.43;;;;;;;;;;4987805;28;20385;-58
2023/09/19 00:05:55;;;;;;;0.57;0.45;;;;;;;;;;4987080;28;20034;-59
2023/09/19 00:08:22;;;;;;;0.77;0.60;;;;;;;;;;4992919;28;20035;-59
2023/09/19 00:10:48;;;;;;;0.63;0.32;;;;;;;;;;4993373;28;20045;-58
2023/09/19 00:13:15;;;;;;;0.43;0.43;;;;;;;;;;4993401;28;20023;-59
2023/09/19 00:15:48;;;;;;;1.60;0.90;;;;;;;;;;4993505;28;20080;-59
2023/09/19 00:18:21;;;;;;;10.75;0.50;;;;;;;;;;4992849;28;20508;-57
2023/09/19 00:20:49;;;;;;;4.70;1.00;;;;;;;;;;4987576;28;20030;-58
2023/09/19 00:23:15;;;;;;;2.00;1.02;;;;;;;;;;4986431;28;20034;-58
2023/09/19 00:25:42;;;;;;;1.65;1.08;;;;;;;;;;4987843;28;20026;-57
2023/09/19 00:28:09;;;;;;;3.33;1.25;;;;;;;;;;4987606;28;20065;-58
2023/09/19 00:30:38;;;;;;;3.25;0.95;;;;;;;;;;4992274;28;20026;-58
2023/09/19 00:33:07;;;;;;;1.52;1.10;;;;;;;;;;4992818;28;20034;-58
2023/09/19 00:35:34;;;;;;;1.20;1.02;;;;;;;;;;4992767;28;20436;-58
2023/09/19 00:38:01;;;;;;;2.40;1.48;;;;;;;;;;4992743;28;20038;-58
2023/09/19 00:40:29;;;;;;;2.38;1.15;;;;;;;;;;4992349;28;20040;-58
2023/09/19 00:43:01;;;;;;;2.85;1.35;;;;;;;;;;4987708;28;20042;-58
2023/09/19 00:45:28;;;;;;;2.65;1.40;;;;;;;;;;4987258;28;20031;-58
2023/09/19 00:47:55;;;;;;;1.67;0.90;;;;;;;;;;4987392;28;20026;-58
2023/09/19 00:50:24;;;;;;;2.08;1.42;;;;;;;;;;4986998;28;20057;-58
2023/09/19 00:52:55;;;;;;;1.55;1.20;;;;;;;;;;4990541;28;20527;-58
2023/09/19 00:55:22;;;;;;;1.33;0.93;;;;;;;;;;4991479;28;20081;-58
2023/09/19 00:57:49;;;;;;;2.33;1.27;;;;;;;;;;4989760;28;20442;-57
2023/09/19 01:00:20;;;;;;;1.92;1.20;;;;;;;;;;4990998;28;20046;-58
2023/09/19 01:02:47;;;;;;;1.58;1.10;;;;;;;;;;4992412;28;20081;-58
2023/09/19 01:05:13;;;;;;;0.83;0.70;;;;;;;;;;4988416;28;20033;-58
2023/09/19 01:07:40;;;;;;;1.52;0.93;;;;;;;;;;4986652;28;20485;-58
2023/09/19 01:10:11;;;;;;;1.20;0.87;;;;;;;;;;4987498;28;20482;-58
2023/09/19 01:12:44;;;;;;;1.83;1.10;;;;;;;;;;4986918;28;20122;-58
2023/09/19 01:15:23;;;;;;;2.10;1.02;;;;;;;;;;4990835;28;20046;-58
2023/09/19 01:17:55;;;;;;;1.67;1.07;;;;;;;;;;4992355;28;20121;-57
2023/09/19 01:20:40;;;;;;;1.02;0.70;;;;;;;;;;4992400;28;20381;-58
2023/09/19 01:23:07;;;;;;;;;;;;;;;;;;4993074;28;20031;-58
2023/09/19 01:25:40;;;;;;;1.00;0.65;;;;;;;;;;4992090;28;19932;-58
2023/09/19 01:28:07;;;;;;;1.67;0.93;;;;;;;;;;4987329;28;20041;-58
2023/09/19 01:30:37;;;;;;;2.43;0.97;;;;;;;;;;4987026;28;20030;-58
2023/09/19 01:33:06;;;;;;;2.08;1.20;;;;;;;;;;4986741;28;20038;-58
2023/09/19 01:35:34;;;;;;;0.60;0.40;;;;;;;;;;4988873;28;20096;-58
2023/09/19 01:38:00;;;;;;;3.23;1.50;;;;;;;;;;4994685;28;20034;-58
2023/09/19 01:40:27;;;;;;;0.80;0.60;;;;;;;;;;4996156;28;20042;-57
2023/09/19 01:43:05;;;;;;;2.87;1.47;;;;;;;;;;4996096;28;20030;-57
2023/09/19 01:45:32;;;;;;;1.58;0.73;;;;;;;;;;4996222;28;20022;-59
2023/09/19 01:48:06;;;;;;;0.77;0.63;;;;;;;;;;4995769;28;20026;-58
2023/09/19 01:50:43;;;;;;;1.10;0.80;;;;;;;;;;4991425;28;20025;-58
2023/09/19 01:53:39;;;;;;;1.23;0.73;;;;;;;;;;4990572;28;20034;-58
2023/09/19 01:56:12;;;;;;;1.37;0.87;;;;;;;;;;4982301;28;20394;-58
2023/09/19 01:58:44;;;;;;;0.50;0.40;;;;;;;;;;4990615;28;20038;-58
2023/09/19 02:01:29;;;;;;;1.10;0.90;;;;;;;;;;4995158;28;20046;-58
2023/09/19 02:03:56;;;;;;;0.90;0.80;;;;;;;;;;4995794;28;20061;-57
2023/09/19 02:06:26;;;;;;;1.43;0.60;;;;;;;;;;4995796;28;20034;-58
2023/09/19 02:08:56;;;;;;;1.17;0.70;;;;;;;;;;4995422;28;20118;-57
2023/09/19 02:11:22;;;;;;;5.50;0.97;;;;;;;;;;4994327;28;20065;-58
2023/09/19 02:13:54;;;;;;;0.97;0.70;;;;;;;;;;4989797;28;20246;-58
2023/09/19 02:16:21;;;;;;;3.13;1.07;;;;;;;;;;4990303;28;20781;-59
2023/09/19 02:18:49;;;;;;;1.03;0.77;;;;;;;;;;4990251;28;20041;-58
2023/09/19 02:21:17;;;;;;;1.30;0.90;;;;;;;;;;4989920;28;20039;-58
2023/09/19 02:23:51;;;;;;;0.30;0.30;;;;;;;;;;4988616;28;20026;-58
2023/09/19 02:26:26;;;;;;;1.42;1.13;;;;;;;;;;4994378;28;20398;-58
2023/09/19 02:28:56;;;;;;;2.97;1.40;;;;;;;;;;4994006;28;20038;-57
2023/09/19 02:31:30;;;;;;;2.47;1.20;;;;;;;;;;4992786;28;20062;-59
2023/09/19 02:33:59;;;;;;;2.78;1.00;;;;;;;;;;4992553;28;20429;-59
2023/09/19 02:36:30;;;;;;;7.47;1.30;;;;;;;;;;4989495;28;20117;-59
2023/09/19 02:39:00;;;;;;;1.87;1.17;;;;;;;;;;4988600;28;20038;-59
2023/09/19 02:41:29;;;;;;;3.57;1.67;;;;;;;;;;4988922;28;20034;-59
2023/09/19 02:44:07;;;;;;;2.57;1.47;;;;;;;;;;4989270;28;20027;-60
2023/09/19 02:46:39;;;;;;;0.97;0.80;;;;;;;;;;4992543;28;20046;-58
2023/09/19 02:49:20;;;;;;;3.03;1.40;;;;;;;;;;4994363;28;20045;-59
2023/09/19 02:51:55;;;;;;;1.37;0.90;;;;;;;;;;4994110;28;20476;-58
2023/09/19 02:54:25;;;;;;;1.47;1.10;;;;;;;;;;4995233;28;20049;-58
2023/09/19 02:56:59;;;;;;;5.97;1.87;;;;;;;;;;4992391;28;20049;-60
2023/09/19 02:59:28;;;;;;;2.97;2.17;;;;;;;;;;4989117;28;20034;-58
2023/09/19 03:01:55;;;;;;;2.13;1.40;;;;;;;;;;4989632;28;20089;-58
2023/09/19 03:04:21;;;;;;;2.87;1.90;;;;;;;;;;4989618;28;20486;-58
2023/09/19 03:06:51;;;;;;;2.80;1.90;;;;;;;;;;4990871;28;20040;-58
2023/09/19 03:09:19;;;;;;;2.00;0.80;;;;;;;;;;4994510;28;20066;-57
2023/09/19 03:11:46;;;;;;;2.10;1.30;;;;;;;;;;4994281;28;20040;-57
2023/09/19 03:14:14;;;;;;;2.43;1.43;;;;;;;;;;4994211;28;20386;-58
2023/09/19 03:16:42;;;;;;;1.77;1.23;;;;;;;;;;4994637;28;20425;-58
2023/09/19 03:19:10;;;;;;;1.87;1.23;;;;;;;;;;4993320;28;20468;-58
2023/09/19 03:21:38;;;;;;;10.13;1.40;;;;;;;;;;4989467;28;20100;-58
2023/09/19 03:24:05;;;;;;;0.93;0.80;;;;;;;;;;4988162;28;20371;-57
2023/09/19 03:26:33;;;;;;;3.03;1.47;;;;;;;;;;4989338;28;20042;-57
2023/09/19 03:28:59;;;;;;;3.47;1.03;;;;;;;;;;4989410;28;20065;-58
2023/09/19 03:31:26;;;;;;;2.20;1.43;;;;;;;;;;4993913;28;20026;-58
2023/09/19 03:33:53;;;;;;;1.63;1.03;;;;;;;;;;4994224;28;20417;-57
2023/09/19 03:36:20;;;;;;;2.40;1.50;;;;;;;;;;4993507;28;20038;-57
2023/09/19 03:38:46;;;;;;;1.90;1.33;;;;;;;;;;4993850;28;20418;-58
2023/09/19 03:41:17;;;;;;;3.73;1.77;;;;;;;;;;5010483;28;20030;-58
2023/09/19 03:43:43;;;;;;;6.83;1.87;;;;;;;;;;5004660;28;20030;-59
2023/09/19 03:46:12;;;;;;;1.37;1.07;;;;;;;;;;4988873;28;20489;-59
2023/09/19 03:48:39;;;;;;;2.37;1.37;;;;;;;;;;4989039;28;20023;-58
2023/09/19 03:51:05;;;;;;;1.07;0.90;;;;;;;;;;4989179;28;20034;-58
2023/09/19 03:53:32;;;;;;;1.47;1.17;;;;;;;;;;4993127;28;20064;-58
2023/09/19 03:56:00;;;;;;;1.57;1.17;;;;;;;;;;4994010;28;20029;-58
2023/09/19 03:58:27;;;;;;;1.00;0.90;;;;;;;;;;4993510;28;20109;-58
2023/09/19 04:00:57;;;;;;;1.63;1.10;;;;;;;;;;4993487;28;20030;-58
2023/09/19 04:03:34;;;;;;;1.40;0.93;;;;;;;;;;4974330;28;20096;-57
2023/09/19 04:06:02;;;;;;;0.97;0.80;;;;;;;;;;4977556;28;20026;-59
2023/09/19 04:08:29;;;;;;;1.77;1.27;;;;;;;;;;4988792;28;20026;-58
2023/09/19 04:10:56;;;;;;;1.07;0.90;;;;;;;;;;4988156;28;20058;-57
2023/09/19 04:13:23;;;;;;;1.37;1.00;;;;;;;;;;4988604;28;20038;-57
2023/09/19 04:15:50;;;;;;;2.17;1.37;;;;;;;;;;4990869;28;20038;-58
2023/09/19 04:18:17;;;;;;;2.07;1.40;;;;;;;;;;4992297;28;20038;-58
2023/09/19 04:20:48;;;;;;;1.00;0.80;;;;;;;;;;4992635;28;20037;-58
2023/09/19 04:23:15;;;;;;;1.57;0.90;;;;;;;;;;4993101;28;20050;-58
2023/09/19 04:25:42;;;;;;;1.33;1.07;;;;;;;;;;4992946;28;20106;-58
2023/09/19 04:28:10;;;;;;;1.17;0.87;;;;;;;;;;4988781;28;20058;-58
2023/09/19 04:30:40;;;;;;;1.40;0.90;;;;;;;;;;4988010;28;20031;-58
2023/09/19 04:33:07;;;;;;;3.70;1.40;;;;;;;;;;4988461;28;20044;-58
2023/09/19 04:35:33;;;;;;;1.63;1.03;;;;;;;;;;4987850;28;20038;-59
2023/09/19 04:38:00;;;;;;;1.10;0.97;;;;;;;;;;4991110;28;20022;-58
2023/09/19 04:40:27;;;;;;;1.43;1.23;;;;;;;;;;4992646;28;20034;-59
2023/09/19 04:42:57;;;;;;;4.20;1.17;;;;;;;;;;4993183;28;20513;-58
2023/09/19 04:45:24;;;;;;;1.47;1.10;;;;;;;;;;4992677;28;20034;-58
2023/09/19 04:47:51;;;;;;;1.33;1.03;;;;;;;;;;4993222;28;20046;-58
2023/09/19 04:50:18;;;;;;;2.20;1.30;;;;;;;;;;4988898;28;20031;-58
2023/09/19 04:52:45;;;;;;;2.83;1.57;;;;;;;;;;4987864;28;20042;-58
2023/09/19 04:55:16;;;;;;;1.67;1.27;;;;;;;;;;4987505;28;20045;-58
2023/09/19 04:57:47;;;;;;;1.10;0.97;;;;;;;;;;4987549;28;20034;-58
2023/09/19 05:00:16;;;;;;;1.13;0.90;;;;;;;;;;4990238;28;20870;-59
2023/09/19 05:02:42;;;;;;;1.77;1.00;;;;;;;;;;4992611;28;20034;-59
2023/09/19 05:05:14;;;;;;;0.77;0.50;;;;;;;;;;4992930;28;20035;-58
2023/09/19 05:07:42;;;;;;;1.00;0.57;;;;;;;;;;4992389;28;20447;-58
2023/09/19 05:10:10;;;;;;;1.73;0.90;;;;;;;;;;4992049;28;20033;-58
2023/09/19 05:12:36;;;;;;;1.37;0.83;;;;;;;;;;4988865;28;20034;-58
2023/09/19 05:15:03;;;;;;;1.47;0.93;;;;;;;;;;4987443;28;20106;-59
2023/09/19 05:17:31;;;;;;;27.77;1.70;;;;;;;;;;4987342;28;20515;-58
2023/09/19 05:19:58;;;;;;;2.00;1.07;;;;;;;;;;4987397;28;20084;-58
2023/09/19 05:22:25;;;;;;;1.90;1.23;;;;;;;;;;4989509;28;20081;-59
2023/09/19 05:24:52;;;;;;;3.60;1.30;;;;;;;;;;4992917;28;20110;-58
2023/09/19 05:27:20;;;;;;;1.23;0.83;;;;;;;;;;4992226;28;20473;-58
2023/09/19 05:29:48;;;;;;;2.03;1.20;;;;;;;;;;4992184;28;20030;-58
2023/09/19 05:32:15;;;;;;;1.60;1.13;;;;;;;;;;4992072;28;20031;-58
2023/09/19 05:34:42;;;;;;;1.80;1.10;;;;;;;;;;4989955;28;20045;-58
2023/09/19 05:37:09;;;;;;;3.67;1.30;;;;;;;;;;4986934;28;20168;-58
2023/09/19 05:39:37;;;;;;;5.47;1.93;;;;;;;;;;4987291;28;20039;-58
2023/09/19 05:42:04;;;;;;;2.20;1.10;;;;;;;;;;4987287;28;20489;-59
2023/09/19 05:44:31;;;;;;;1.93;1.13;;;;;;;;;;4988785;28;20033;-58
2023/09/19 05:46:58;;;;;;;1.80;1.07;;;;;;;;;;4992135;28;20045;-58
2023/09/19 05:49:25;;;;;;;1.50;0.93;;;;;;;;;;4992248;28;20096;-58
2023/09/19 05:51:57;;;;;;;17.37;1.80;;;;;;;;;;4992170;28;20026;-58
2023/09/19 05:54:23;;;;;;;9.27;1.73;;;;;;;;;;4992224;28;20393;-58
2023/09/19 05:56:52;;;;;;;2.23;1.17;;;;;;;;;;4990482;28;20453;-58
2023/09/19 05:59:20;;;;;;;0.80;0.63;;;;;;;;;;4986984;28;20486;-58
2023/09/19 06:01:47;;;;;;;2.23;0.90;;;;;;;;;;4987039;28;20030;-58
2023/09/19 06:04:13;;;;;;;1.93;1.30;;;;;;;;;;4986907;28;20027;-61
2023/09/19 06:06:40;;;;;;;1.23;0.93;;;;;;;;;;4987433;28;20030;-58
2023/09/19 06:09:08;;;;;;;1.70;1.23;;;;;;;;;;4992469;28;20026;-58
2023/09/19 06:11:38;;;;;;;1.13;0.90;;;;;;;;;;4992006;28;20414;-57
2023/09/19 06:14:04;;;;;;;2.40;1.17;;;;;;;;;;4991915;28;20030;-57
2023/09/19 06:16:34;;;;;;;2.30;1.70;;;;;;;;;;4983869;28;20019;-57
2023/09/19 06:19:02;;;;;;;4.47;1.67;;;;;;;;;;4982594;28;20041;-57
2023/09/19 06:21:29;;;;;;;2.37;0.90;;;;;;;;;;4985278;28;20038;-58
2023/09/19 06:23:57;;;;;;;2.27;1.47;;;;;;;;;;4987537;28;20034;-58
2023/09/19 06:26:26;;;;;;;1.67;1.27;;;;;;;;;;4987454;28;20076;-56
2023/09/19 06:28:55;;;;;;;2.43;1.53;;;;;;;;;;4996245;28;20030;-56
2023/09/19 06:31:25;;;;;;;1.37;1.10;;;;;;;;;;4993654;28;20090;-56
2023/09/19 06:33:55;;;;;;;1.30;0.93;;;;;;;;;;4993175;28;20043;-56
2023/09/19 06:36:22;;;;;;;1.67;1.23;;;;;;;;;;5003024;28;20054;-56
2023/09/19 06:38:51;;;;;;;1.30;1.13;;;;;;;;;;4993829;28;20022;-56
2023/09/19 06:41:18;;;;;;;2.67;1.30;;;;;;;;;;4992755;28;20073;-56
2023/09/19 06:43:45;;;;;;;1.73;1.20;;;;;;;;;;4988370;28;20034;-56
2023/09/19 06:46:12;;;;;;;1.47;1.10;;;;;;;;;;4988817;28;20502;-56
2023/09/19 06:48:39;;;;;;;1.33;1.00;;;;;;;;;;4988045;28;20034;-56
2023/09/19 06:51:06;;;;;;;1.77;1.03;;;;;;;;;;4987960;28;20034;-57
2023/09/19 06:53:34;;;;;;;8.33;1.43;;;;;;;;;;4993535;28;20486;-56
2023/09/19 06:56:01;;;;;;;1.03;0.77;;;;;;;;;;4993061;28;20034;-58
2023/09/19 06:58:28;;;;;;;1.90;0.97;;;;;;;;;;4993239;28;20034;-56
2023/09/19 07:00:54;;;;;;;1.80;1.10;;;;;;;;;;4993115;28;20070;-57
2023/09/19 07:03:25;;;;;;;1.30;0.77;;;;;;;;;;4993504;28;20045;-56
2023/09/19 07:05:52;;;;;;;1.23;1.00;;;;;;;;;;4987469;28;20152;-55
2023/09/19 07:08:19;;;;;;;1.73;0.77;;;;;;;;;;4988271;28;20565;-56
2023/09/19 07:10:49;;;;;;;2.40;0.93;;;;;;;;;;4987732;28;20026;-56
2023/09/19 07:13:19;;;;;;;1.97;1.23;;;;;;;;;;4987859;28;20052;-56
2023/09/19 07:15:49;;;;;;;2.67;0.87;;;;;;;;;;4991963;28;20109;-56
2023/09/19 07:18:17;;;;;;;1.27;1.17;;;;;;;;;;4973587;28;20584;-55
2023/09/19 07:20:50;;;;;;;2.43;1.07;;;;;;;;;;4973446;28;20039;-57
2023/09/19 07:23:22;;;;;;;1.17;0.93;;;;;;;;;;4973884;28;20041;-56
2023/09/19 07:25:49;;;;;;;1.20;0.90;;;;;;;;;;4988290;28;20582;-56
2023/09/19 07:28:15;;;;;;;0.80;0.70;;;;;;;;;;4988241;28;20102;-55
2023/09/19 07:30:42;;;;;;;2.00;1.33;;;;;;;;;;4987836;28;20038;-57
2023/09/19 07:33:12;;;;;;;2.10;1.27;;;;;;;;;;4987053;28;20046;-56
2023/09/19 07:35:41;;;;;;;1.57;1.13;;;;;;;;;;4987618;28;20026;-56
2023/09/19 07:38:11;;;;;;;1.00;0.90;;;;;;;;;;4991664;28;20485;-57
2023/09/19 07:40:37;;;;;;;2.93;1.27;;;;;;;;;;4992747;28;20050;-56
2023/09/19 07:43:04;;;;;;;0.97;0.80;;;;;;;;;;4992184;28;20066;-56
2023/09/19 07:45:31;;;;;;;1.27;1.03;;;;;;;;;;4992574;28;20032;-57
2023/09/19 07:48:00;;;;;;;1.67;1.10;;;;;;;;;;4992539;28;20026;-57
2023/09/19 07:50:26;;;;;;;2.17;1.43;;;;;;;;;;4987863;28;20049;-55
2023/09/19 07:52:54;;;;;;;2.77;1.63;;;;;;;;;;4987169;28;20490;-56
2023/09/19 07:55:24;;;;;;;0.87;0.70;;;;;;;;;;4967625;28;20041;-56
2023/09/19 07:57:51;;;;;;;1.33;0.87;;;;;;;;;;4967816;28;20043;-56
2023/09/19 08:00:18;;;;;;;1.67;1.37;;;;;;;;;;4971715;28;20067;-56
2023/09/19 08:02:45;;;;;;;1.60;1.07;;;;;;;;;;4992274;28;20057;-56
2023/09/19 08:05:15;;;;;;;4.60;1.37;;;;;;;;;;4992084;28;20030;-55
2023/09/19 08:07:43;;;;;;;1.30;1.00;;;;;;;;;;4992204;28;20378;-56
2023/09/19 08:10:15;;;;;;;23.20;1.53;;;;;;;;;;4992334;28;20149;-56
2023/09/19 08:12:56;;;;;;;2.93;1.50;;;;;;;;;;4987679;28;20035;-56
2023/09/19 08:15:22;;;;;;;2.10;1.40;;;;;;;;;;4986938;28;20058;-56
2023/09/19 08:17:50;;;;;;;1.13;0.70;;;;;;;;;;4987095;28;20030;-56
2023/09/19 08:20:17;;;;;;;1.60;0.90;;;;;;;;;;4986994;28;20129;-55
2023/09/19 08:22:45;;;;;;;0.40;0.40;;;;;;;;;;4990030;28;20177;-56
2023/09/19 08:25:13;;;;;;;1.13;0.77;;;;;;;;;;4992584;28;20038;-55
2023/09/19 08:27:39;;;;;;;0.97;0.87;;;;;;;;;;4993314;28;20033;-55
2023/09/19 08:30:06;;;;;;;1.27;0.93;;;;;;;;;;4992330;28;20036;-55
2023/09/19 08:32:33;;;;;;;1.30;0.97;;;;;;;;;;4993158;28;20106;-56
2023/09/19 08:35:00;;;;;;;1.67;1.03;;;;;;;;;;4989404;28;20545;-55
2023/09/19 08:37:27;;;;;;;0.83;0.60;;;;;;;;;;4987558;28;20504;-55
2023/09/19 08:39:54;;;;;;;2.40;1.30;;;;;;;;;;4987825;28;20519;-56
2023/09/19 08:42:21;;;;;;;3.10;1.10;;;;;;;;;;4987608;28;20034;-56
2023/09/19 08:44:48;;;;;;;1.17;0.90;;;;;;;;;;4989504;28;20026;-56
2023/09/19 08:47:16;;;;;;;1.00;0.90;;;;;;;;;;4992828;28;20038;-55
2023/09/19 08:50:03;;;;;;;1.03;0.87;;;;;;;;;;4992945;28;20026;-56
2023/09/19 08:52:37;;;;;;;4.60;1.63;;;;;;;;;;4992878;28;20029;-55
2023/09/19 08:55:07;;;;;;;1.45;0.90;;;;;;;;;;4992931;28;20027;-56
2023/09/19 08:57:35;;;;;;;1.67;1.20;;;;;;;;;;4988619;28;20037;-56
2023/09/19 09:00:09;;;;;;;0.80;0.77;;;;;;;;;;4987518;28;20046;-55
2023/09/19 09:02:40;;;;;;;2.20;1.13;;;;;;;;;;4987413;28;20430;-55
2023/09/19 09:05:07;;;;;;;1.70;1.03;;;;;;;;;;4987422;28;20093;-55
2023/09/19 09:07:34;;;;;;;0.63;0.60;;;;;;;;;;4990832;28;20034;-57
2023/09/19 09:10:01;;;;;;;2.23;0.83;;;;;;;;;;4992713;28;20028;-55
2023/09/19 09:12:28;;;;;;;1.23;0.90;;;;;;;;;;4992867;28;20053;-55
2023/09/19 09:14:57;;;;;;;1.10;0.90;;;;;;;;;;4992195;28;20363;-56
2023/09/19 09:17:24;;;;;;;0.63;0.63;;;;;;;;;;4992159;28;20037;-55
2023/09/19 09:19:54;;;;;;;1.10;0.90;;;;;;;;;;4988835;28;20044;-55
2023/09/19 09:22:23;;;;;;;0.90;0.70;;;;;;;;;;4987477;28;20394;-56
2023/09/19 09:25:06;;;;;;;1.80;1.17;;;;;;;;;;4987329;28;20085;-55
2023/09/19 09:27:34;;;;;;;1.37;1.00;;;;;;;;;;4986629;28;20027;-55
2023/09/19 09:30:00;;;;;;;1.23;0.87;;;;;;;;;;4990780;28;20034;-55
2023/09/19 09:32:36;;;;;;;0.70;0.70;;;;;;;;;;4992605;28;20053;-55
2023/09/19 09:35:14;;;;;;;1.53;0.97;;;;;;;;;;4992541;28;20034;-55
2023/09/19 09:37:44;;;;;;;1.30;0.90;;;;;;;;;;4992006;28;20030;-55
2023/09/19 09:42:46;;;;;;;1.07;0.87;;;;;;;;;;4987625;28;20041;-56
2023/09/19 09:48:13;;;;;;;1.23;1.00;;;;;;;;;;4987025;28;20129;-56
2023/09/19 09:50:55;;;;;;;0.83;0.67;;;;;;;;;;4986879;28;20044;-55
2023/09/19 09:53:25;;;;;;;1.43;0.70;;;;;;;;;;4992398;28;20049;-55
2023/09/19 09:56:00;;;;;;;3.47;1.47;;;;;;;;;;4992675;28;20489;-55
2023/09/19 09:58:32;;;;;;;0.80;0.70;;;;;;;;;;4995446;28;20053;-55
2023/09/19 10:01:08;;;;;;;0.93;0.80;;;;;;;;;;4995809;28;20057;-55
2023/09/19 10:03:43;;;;;;;8.00;1.50;;;;;;;;;;4994692;28;20168;-55
2023/09/19 10:06:25;;;;;;;1.67;1.07;;;;;;;;;;4990570;28;20053;-56
2023/09/19 10:11:39;;;;;;;1.05;0.93;;;;;;;;;;4990828;28;20030;-55
2023/09/19 10:14:09;;;;;;;1.33;1.10;;;;;;;;;;4992568;28;20058;-55
2023/09/19 10:16:37;;;;;;;1.00;0.77;;;;;;;;;;4995538;28;20033;-55
2023/09/19 10:19:08;;;;;;;3.77;0.97;;;;;;;;;;4995049;28;20027;-55
2023/09/19 10:21:37;;;;;;;1.43;1.00;;;;;;;;;;4995626;28;20080;-55
2023/09/19 10:24:07;;;;;;;2.47;1.60;;;;;;;;;;4995638;28;20026;-55
2023/09/19 10:26:36;;;;;;;1.37;1.00;;;;;;;;;;4992614;28;20097;-55
2023/09/19 10:29:07;;;;;;;6.23;1.70;;;;;;;;;;4990372;28;20429;-56
2023/09/19 10:31:35;;;;;;;2.77;1.57;;;;;;;;;;4990337;28;20088;-55
2023/09/19 10:34:04;;;;;;;1.30;0.93;;;;;;;;;;4989712;28;20030;-55
2023/09/19 10:36:35;;;;;;;1.10;0.87;;;;;;;;;;4991981;28;20037;-55
2023/09/19 10:39:06;;;;;;;1.73;1.30;;;;;;;;;;4995409;28;20116;-55
2023/09/19 10:41:37;;;;;;;1.17;0.97;;;;;;;;;;4994896;28;20044;-55
2023/09/19 10:44:09;;;;;;;1.20;1.00;;;;;;;;;;4995079;28;20401;-55
2023/09/19 10:46:36;;;;;;;0.80;0.47;;;;;;;;;;4995067;28;20114;-55
2023/09/19 10:49:04;;;;;;;1.23;0.97;;;;;;;;;;4992488;28;20034;-56
2023/09/19 10:51:32;;;;;;;1.50;1.20;;;;;;;;;;4989934;28;20038;-55
2023/09/19 10:54:04;;;;;;;1.43;1.10;;;;;;;;;;4989761;28;20027;-55
2023/09/19 10:56:32;;;;;;;0.97;0.70;;;;;;;;;;4989782;28;20119;-55
2023/09/19 10:59:12;;;;;;;1.33;1.07;;;;;;;;;;4991658;28;20027;-55
2023/09/19 11:01:47;;;;;;;2.77;1.53;;;;;;;;;;4994464;28;20162;-55
2023/09/19 11:04:25;;;;;;;2.65;1.45;;;;;;;;;;4994848;28;20394;-56
2023/09/19 11:07:08;;;;;;;0.93;0.80;;;;;;;;;;4994766;28;20029;-55
2023/09/19 11:09:53;;;;;;;1.37;0.97;;;;;;;;;;4993717;28;20030;-55
2023/09/19 11:14:59;;;;;;;1.03;0.83;;;;;;;;;;4989721;28;20089;-55
2023/09/19 11:17:32;;;;;;;2.07;1.40;;;;;;;;;;4989093;28;20026;-55
2023/09/19 11:22:52;;;;;;;4.23;1.47;;;;;;;;;;4994129;28;20035;-55
2023/09/19 11:25:30;;;;;;;6.43;1.80;;;;;;;;;;4994669;28;20088;-55
2023/09/19 11:28:04;;;;;;;1.83;1.30;;;;;;;;;;4993903;28;20033;-55
2023/09/19 11:30:32;;;;;;;1.13;0.95;;;;;;;;;;4994497;28;20462;-58
2023/09/19 11:33:43;;;;;;;1.93;1.07;;;;;;;;;;4993831;28;20023;-56
2023/09/19 11:36:04;;;;;;;1.50;1.03;;;;;;;;;;4988528;28;20069;-55
2023/09/19 11:38:49;;;;;;;1.77;1.17;;;;;;;;;;4988927;28;20161;-55
2023/09/19 11:41:22;;;;;;;1.73;1.20;;;;;;;;;;4988844;28;20034;-55
2023/09/19 11:44:16;;;;;;;1.27;1.00;;;;;;;;;;4990719;28;20520;-55
2023/09/19 11:46:52;;;;;;;1.70;1.23;;;;;;;;;;4993846;28;20041;-56
2023/09/19 11:49:23;;;;;;;2.27;1.47;;;;;;;;;;4994001;28;20057;-55
2023/09/19 11:51:53;;;;;;;1.07;0.93;;;;;;;;;;4993996;28;20046;-56
2023/09/19 11:54:24;;;;;;;2.27;1.47;;;;;;;;;;4993645;28;20446;-55
2023/09/19 11:56:54;;;;;;;1.80;1.60;;;;;;;;;;4989922;28;20042;-55
2023/09/19 11:59:24;;;;;;;2.10;1.47;;;;;;;;;;4988450;28;20050;-55
2023/09/19 12:01:57;;;;;;;13.17;1.40;;;;;;;;;;4988486;28;20030;-55
2023/09/19 12:04:41;;;;;;;2.90;1.83;;;;;;;;;;4988626;28;20149;-55
2023/09/19 12:07:15;;;;;;;1.90;1.40;;;;;;;;;;4991830;28;20434;-55
2023/09/19 12:09:44;;;;;;;3.40;1.83;;;;;;;;;;4993277;28;20034;-55
2023/09/19 12:12:12;;;;;;;2.77;1.83;;;;;;;;;;4993647;28;20026;-55
2023/09/19 12:14:41;;;;;;;0.83;0.67;;;;;;;;;;4993372;28;20110;-55
2023/09/19 12:17:09;;;;;;;1.90;1.37;;;;;;;;;;4993436;28;20026;-55
2023/09/19 12:19:35;;;;;;;1.80;1.33;;;;;;;;;;4988097;28;20037;-55
2023/09/19 12:22:09;;;;;;;1.30;1.10;;;;;;;;;;4988261;28;20523;-56
2023/09/19 12:24:38;;;;;;;1.43;1.17;;;;;;;;;;4988257;28;20377;-55
2023/09/19 12:27:09;;;;;;;1.70;1.37;;;;;;;;;;4988015;28;20397;-55
2023/09/19 12:29:45;;;;;;;1.87;1.37;;;;;;;;;;4991572;28;20034;-55
2023/09/19 12:32:11;;;;;;;3.90;2.00;;;;;;;;;;4992876;28;20018;-55
2023/09/19 12:34:42;;;;;;;2.63;1.37;;;;;;;;;;4993282;28;20042;-55
2023/09/19 12:37:21;;;;;;;2.17;1.47;;;;;;;;;;4993228;28;20034;-55
2023/09/19 12:39:50;;;;;;;16.47;3.20;;;;;;;;;;4992577;28;20046;-55
2023/09/19 12:42:19;;;;;;;1.63;1.17;;;;;;;;;;4987869;28;20065;-55
2023/09/19 12:44:46;;;;;;;2.47;1.63;;;;;;;;;;4987641;28;20068;-56
2023/09/19 12:47:19;;;;;;;2.07;1.60;;;;;;;;;;4987643;28;20113;-55
2023/09/19 12:50:06;;;;;;;2.43;1.23;;;;;;;;;;4987407;28;20023;-55
2023/09/19 12:52:39;;;;;;;2.10;1.33;;;;;;;;;;4992556;28;20050;-56
2023/09/19 12:55:07;;;;;;;3.37;2.07;;;;;;;;;;4992463;28;20084;-55
2023/09/19 12:57:34;;;;;;;1.40;1.17;;;;;;;;;;4992746;28;20034;-55
2023/09/19 13:00:10;;;;;;;17.43;2.20;;;;;;;;;;4992492;28;20038;-55
2023/09/19 13:02:38;;;;;;;2.77;1.80;;;;;;;;;;4992551;28;20092;-55
2023/09/19 13:05:06;;;;;;;3.83;1.90;;;;;;;;;;4987459;28;20034;-55
2023/09/19 13:07:46;;;;;;;3.10;1.50;;;;;;;;;;4987485;28;20513;-55
2023/09/19 13:10:16;;;;;;;3.00;1.73;;;;;;;;;;4986068;28;20030;-55
2023/09/19 13:12:46;;;;;;;2.07;1.23;;;;;;;;;;4987197;28;20102;-56
2023/09/19 13:15:23;;;;;;;4.13;1.60;;;;;;;;;;4992632;28;20037;-55
2023/09/19 13:17:50;;;;;;;2.10;1.33;;;;;;;;;;4992390;28;20081;-55
2023/09/19 13:20:39;;;;;;;1.27;1.07;;;;;;;;;;4992092;28;20062;-55
2023/09/19 13:23:10;;;;;;;3.43;2.07;;;;;;;;;;4992751;28;20038;-55
2023/09/19 13:25:40;;;;;;;3.27;1.47;;;;;;;;;;4990985;28;20057;-55
2023/09/19 13:28:06;;;;;;;1.63;1.20;;;;;;;;;;4987300;28;20027;-56
2023/09/19 13:30:42;;;;;;;2.57;1.57;;;;;;;;;;4986681;28;20023;-55
2023/09/19 13:33:14;;;;;;;12.13;1.70;;;;;;;;;;4990513;28;20045;-56
2023/09/19 13:35:41;;;;;;;3.30;1.63;;;;;;;;;;4991846;28;20492;-55
2023/09/19 13:38:11;;;;;;;3.73;1.97;;;;;;;;;;4996107;28;20054;-56
2023/09/19 13:40:41;;;;;;;1.63;1.43;;;;;;;;;;4995843;28;20561;-56
2023/09/19 13:43:08;;;;;;;2.23;1.73;;;;;;;;;;4996359;28;20101;-56
2023/09/19 13:45:36;;;;;;;3.80;2.20;;;;;;;;;;4996317;28;20022;-55
2023/09/19 13:48:03;;;;;;;1.27;1.03;;;;;;;;;;4994632;28;20042;-56
2023/09/19 13:50:31;;;;;;;2.83;1.90;;;;;;;;;;4990133;28;20080;-56
2023/09/19 13:53:00;;;;;;;1.60;1.23;;;;;;;;;;4990680;28;20384;-56
2023/09/19 13:55:27;;;;;;;3.17;2.27;;;;;;;;;;4990922;28;20049;-56
2023/09/19 13:57:55;;;;;;;3.13;2.10;;;;;;;;;;4991619;28;20038;-56
2023/09/19 14:00:22;;;;;;;2.60;2.00;;;;;;;;;;4995454;28;20129;-56
2023/09/19 14:02:50;;;;;;;4.00;1.70;;;;;;;;;;4995086;28;20485;-56
2023/09/19 14:05:18;;;;;;;3.07;2.00;;;;;;;;;;4995949;28;20088;-56
2023/09/19 14:07:45;;;;;;;7.03;2.37;;;;;;;;;;4995818;28;20042;-56
2023/09/19 14:10:12;;;;;;;1.83;1.40;;;;;;;;;;4994719;28;20441;-56
2023/09/19 14:12:43;;;;;;;2.63;1.57;;;;;;;;;;4990397;28;20140;-57
2023/09/19 14:15:10;;;;;;;9.07;2.37;;;;;;;;;;4971101;28;20086;-56
2023/09/19 14:17:37;;;;;;;5.07;2.47;;;;;;;;;;4970719;28;20066;-56
2023/09/19 14:20:04;;;;;;;2.07;1.47;;;;;;;;;;4971173;28;20054;-56
2023/09/19 14:22:33;;;;;;;2.20;1.57;;;;;;;;;;4976240;28;20031;-56
2023/09/19 14:24:59;;;;;;;3.43;2.03;;;;;;;;;;4994641;28;20121;-56
2023/09/19 14:27:26;;;;;;;2.83;1.73;;;;;;;;;;4995643;28;20077;-55
2023/09/19 14:29:53;;;;;;;2.70;1.60;;;;;;;;;;4995718;28;20174;-56
2023/09/19 14:32:19;;;;;;;2.47;1.97;;;;;;;;;;4994401;28;20033;-57
2023/09/19 14:34:47;;;;;;;1.57;1.20;;;;;;;;;;4985741;28;20030;-56
2023/09/19 14:37:13;;;;;;;2.20;1.67;;;;;;;;;;4989568;28;20026;-56
2023/09/19 14:39:44;;;;;;;4.00;1.50;;;;;;;;;;4989812;28;20096;-55
2023/09/19 14:42:11;;;;;;;1.53;1.27;;;;;;;;;;4989322;28;20034;-56
2023/09/19 14:44:38;;;;;;;2.10;1.40;;;;;;;;;;4995135;28;20441;-56
2023/09/19 14:47:05;;;;;;;1.97;1.40;;;;;;;;;;4994658;28;20098;-57
2023/09/19 14:49:34;;;;;;;2.80;1.70;;;;;;;;;;4994650;28;20501;-56
2023/09/19 14:52:03;;;;;;;1.63;1.07;;;;;;;;;;4994745;28;20545;-56
2023/09/19 14:54:30;;;;;;;8.60;1.80;;;;;;;;;;4995085;28;20038;-56
2023/09/19 14:57:04;;;;;;;2.53;1.57;;;;;;;;;;4989664;28;20053;-57
2023/09/19 14:59:31;;;;;;;2.67;1.10;;;;;;;;;;4989198;28;20042;-56
2023/09/19 15:01:58;;;;;;;1.77;1.47;;;;;;;;;;4989424;28;20459;-56
2023/09/19 15:04:25;;;;;;;5.03;1.60;;;;;;;;;;4989514;28;20026;-57
2023/09/19 15:06:54;;;;;;;0.88;0.77;;;;;;;;;;4993479;28;20022;-56
2023/09/19 15:09:26;;;;;;;1.35;1.00;;;;;;;;;;4994846;28;20058;-56
2023/09/19 15:11:53;;;;;;;1.75;1.30;;;;;;;;;;4994534;28;20492;-57